Time;durP1;ratioP1;P1;durP2;ratioP2;P2;SDS_P1;SDS_P2;PMS_P1;PMS_P2;Temp;Humidity;BMP_temperature;BMP_pressure;BME280_temperature;BME280_humidity;BME280_pressure;Samples;Min_cycle;Max_cycle;Signal;HPM_P1;HPM_P2
2020/12/11 00:01:35;;;;;;;21.83;11.05;;;-6.30;69.40;;;;;;5058456;28;20032;-83
2020/12/11 00:04:02;;;;;;;18.73;10.00;;;-6.40;69.50;;;;;;5056151;28;20021;-82
2020/12/11 00:06:27;;;;;;;20.15;10.98;;;-6.40;69.60;;;;;;5057362;28;20382;-83
2020/12/11 00:08:53;;;;;;;18.70;11.55;;;-6.30;69.60;;;;;;5058239;28;20026;-83
2020/12/11 00:11:28;;;;;;;18.90;10.50;;;-6.30;69.60;;;;;;5056185;28;20056;-83
2020/12/11 00:13:55;;;;;;;14.88;9.63;;;-6.30;69.80;;;;;;5056133;28;20021;-82
2020/12/11 00:16:21;;;;;;;21.37;8.13;;;-6.30;69.60;;;;;;5055700;28;20052;-84
2020/12/11 00:18:47;;;;;;;16.80;10.30;;;-6.30;69.60;;;;;;5055984;28;20032;-82
2020/12/11 00:21:13;;;;;;;19.80;9.45;;;-6.40;69.60;;;;;;5056309;28;20305;-83
2020/12/11 00:23:39;;;;;;;16.67;10.35;;;-6.40;69.70;;;;;;5055706;28;20025;-83
2020/12/11 00:26:05;;;;;;;18.98;11.60;;;-6.40;69.60;;;;;;5055635;28;20060;-83
2020/12/11 00:28:31;;;;;;;18.80;10.30;;;-6.40;69.80;;;;;;5055657;28;20428;-82
2020/12/11 00:30:57;;;;;;;22.25;11.88;;;-6.40;69.80;;;;;;5056142;28;20071;-83
2020/12/11 00:33:24;;;;;;;22.55;11.43;;;-6.50;69.80;;;;;;5056996;28;20017;-82
2020/12/11 00:35:51;;;;;;;18.77;11.65;;;-6.50;70.00;;;;;;5058325;28;20019;-83
2020/12/11 00:38:18;;;;;;;18.38;11.85;;;-6.50;70.00;;;;;;5056285;28;20021;-82
2020/12/11 00:40:44;;;;;;;24.05;10.65;;;-6.50;70.00;;;;;;5055446;28;20047;-82
2020/12/11 00:43:10;;;;;;;24.55;11.73;;;-6.50;70.10;;;;;;5055633;28;20466;-81
2020/12/11 00:45:36;;;;;;;15.98;11.02;;;-6.60;70.20;;;;;;5055423;28;20386;-82
2020/12/11 00:48:02;;;;;;;21.48;12.55;;;-6.60;70.30;;;;;;5053793;28;20053;-81
2020/12/11 00:50:28;;;;;;;20.67;10.85;;;-6.60;70.40;;;;;;5054961;28;20384;-82
2020/12/11 00:52:54;;;;;;;20.05;11.23;;;-6.60;70.40;;;;;;5055524;28;20112;-83
2020/12/11 00:55:22;;;;;;;19.92;10.05;;;-6.60;70.60;;;;;;5055873;28;20039;-83
2020/12/11 00:57:48;;;;;;;19.50;10.20;;;-6.60;70.60;;;;;;5055503;28;20032;-82
2020/12/11 01:00:16;;;;;;;20.88;13.00;;;-6.60;70.60;;;;;;5055276;28;20097;-82
2020/12/11 01:02:42;;;;;;;22.95;10.60;;;-6.60;70.70;;;;;;5053116;28;20044;-82
2020/12/11 01:05:08;;;;;;;14.68;9.48;;;-6.60;70.80;;;;;;5057416;28;20483;-83
2020/12/11 01:07:34;;;;;;;17.38;10.18;;;-6.70;70.90;;;;;;5055922;28;20051;-84
2020/12/11 01:10:00;;;;;;;18.15;10.88;;;-6.70;71.00;;;;;;5053473;28;20049;-83
2020/12/11 01:12:26;;;;;;;23.00;13.23;;;-6.60;71.00;;;;;;5055269;28;20456;-84
2020/12/11 01:14:52;;;;;;;16.80;9.20;;;-6.60;71.00;;;;;;5054613;28;20359;-83
2020/12/11 01:17:19;;;;;;;22.70;10.50;;;-6.60;71.10;;;;;;5054492;28;20017;-81
2020/12/11 01:19:44;;;;;;;15.10;10.73;;;-6.70;71.10;;;;;;5053524;28;20025;-83
2020/12/11 01:22:12;;;;;;;22.05;12.00;;;-6.70;71.20;;;;;;5054668;28;20474;-83
2020/12/11 01:24:38;;;;;;;21.10;13.35;;;-6.70;71.20;;;;;;5054690;28;20025;-81
2020/12/11 01:27:04;;;;;;;24.40;12.10;;;-6.70;71.20;;;;;;5053115;28;20037;-83
2020/12/11 01:29:31;;;;;;;20.55;10.88;;;-6.70;71.20;;;;;;5053527;28;20025;-82
2020/12/11 01:31:58;;;;;;;20.98;11.32;;;-6.70;71.30;;;;;;5061632;28;20108;-82
2020/12/11 01:34:24;;;;;;;;;;;-6.70;71.40;;;;;;5057543;28;20027;-82
2020/12/11 01:36:51;;;;;;;14.23;11.13;;;-6.80;71.30;;;;;;5053193;28;19904;-82
2020/12/11 01:39:17;;;;;;;18.63;10.90;;;-6.80;71.30;;;;;;5054844;28;20025;-82
2020/12/11 01:41:43;;;;;;;24.75;11.43;;;-6.80;71.60;;;;;;5054214;28;20545;-82
2020/12/11 01:44:12;;;;;;;23.58;11.10;;;-6.80;71.90;;;;;;5053939;28;20025;-83
2020/12/11 01:46:39;;;;;;;17.15;10.43;;;-6.80;72.00;;;;;;5054109;28;20136;-82
2020/12/11 01:49:11;;;;;;;20.65;11.18;;;-6.80;72.10;;;;;;5050065;28;20028;-82
2020/12/11 01:51:37;;;;;;;18.05;10.60;;;-6.80;72.30;;;;;;5050978;28;20388;-82
2020/12/11 01:54:03;;;;;;;25.75;11.82;;;-6.80;72.30;;;;;;5053719;28;20021;-83
2020/12/11 01:56:40;;;;;;;15.57;9.80;;;-6.80;72.40;;;;;;5054085;28;20126;-82
2020/12/11 01:59:12;;;;;;;22.65;12.65;;;-6.80;72.60;;;;;;5044427;28;20053;-81
2020/12/11 02:01:38;;;;;;;16.52;9.00;;;-6.80;72.60;;;;;;5051567;28;20025;-82
2020/12/11 02:04:07;;;;;;;18.77;9.82;;;-6.70;72.50;;;;;;5062751;28;20017;-79
2020/12/11 02:06:34;;;;;;;19.55;11.23;;;-6.70;72.70;;;;;;5064307;28;20033;-82
2020/12/11 02:09:01;;;;;;;;;;;-6.80;72.60;;;;;;5055256;28;20028;-83
2020/12/11 02:11:27;;;;;;;16.33;8.32;;;-6.80;72.60;;;;;;5053149;28;19924;-83
2020/12/11 02:13:52;;;;;;;18.63;10.18;;;-6.80;72.60;;;;;;5050614;28;20474;-82
2020/12/11 02:16:23;;;;;;;21.05;10.60;;;-6.80;73.00;;;;;;5052548;28;20029;-81
2020/12/11 02:18:50;;;;;;;19.63;12.60;;;-6.90;72.70;;;;;;5052866;28;20108;-82
2020/12/11 02:21:16;;;;;;;16.07;8.73;;;-6.80;72.80;;;;;;5051628;28;20481;-82
2020/12/11 02:23:43;;;;;;;15.40;10.55;;;-6.80;72.80;;;;;;5054833;28;20055;-82
2020/12/11 02:26:09;;;;;;;21.45;11.50;;;-6.80;72.80;;;;;;5058826;28;20055;-81
2020/12/11 02:28:36;;;;;;;19.73;11.50;;;-6.80;72.80;;;;;;5063850;28;20108;-80
2020/12/11 02:31:03;;;;;;;27.73;10.95;;;-6.90;72.70;;;;;;5057554;28;20024;-82
2020/12/11 02:33:29;;;;;;;20.30;10.90;;;-6.90;72.80;;;;;;5053069;28;20033;-83
2020/12/11 02:35:55;;;;;;;32.65;15.98;;;-6.90;72.90;;;;;;5052472;28;20428;-83
2020/12/11 02:38:22;;;;;;;25.30;12.23;;;-6.80;73.00;;;;;;5052234;28;20021;-82
2020/12/11 02:40:56;;;;;;;19.38;12.40;;;-6.90;72.80;;;;;;5052792;28;20056;-81
2020/12/11 02:43:22;;;;;;;19.52;9.70;;;-6.80;73.00;;;;;;5053074;28;20078;-81
2020/12/11 02:45:51;;;;;;;19.92;11.18;;;-6.80;72.90;;;;;;5052484;28;20403;-81
2020/12/11 02:48:18;;;;;;;19.55;10.20;;;-6.80;73.00;;;;;;5052405;28;20424;-82
2020/12/11 02:50:45;;;;;;;15.77;9.75;;;-6.80;73.00;;;;;;5052182;28;20056;-82
2020/12/11 02:53:11;;;;;;;23.27;10.52;;;-6.80;73.00;;;;;;5052190;28;20021;-84
2020/12/11 02:55:37;;;;;;;19.75;11.13;;;-6.80;73.10;;;;;;5052038;28;20029;-82
2020/12/11 02:58:03;;;;;;;18.75;11.18;;;-6.80;73.10;;;;;;5051894;28;20074;-82
2020/12/11 03:00:29;;;;;;;14.37;9.37;;;-6.80;73.20;;;;;;5052547;28;20017;-82
2020/12/11 03:02:55;;;;;;;15.27;10.60;;;-6.80;73.20;;;;;;5051994;28;20262;-83
2020/12/11 03:05:21;;;;;;;24.48;10.13;;;-6.90;73.20;;;;;;5052492;28;20021;-82
2020/12/11 03:07:47;;;;;;;16.48;9.38;;;-6.90;73.10;;;;;;5065484;28;20063;-83
2020/12/11 03:10:13;;;;;;;16.42;10.07;;;-6.90;73.20;;;;;;5025621;28;899348;-81
2020/12/11 03:12:38;;;;;;;18.38;10.05;;;-6.90;73.20;;;;;;5053080;28;20029;-80
2020/12/11 03:15:04;;;;;;;16.88;12.20;;;-6.90;73.30;;;;;;5052469;28;20018;-81
2020/12/11 03:17:30;;;;;;;16.33;11.25;;;-6.90;73.30;;;;;;5052658;28;20025;-81
2020/12/11 03:19:56;;;;;;;18.60;10.05;;;-6.90;73.30;;;;;;5052482;28;20021;-81
2020/12/11 03:22:22;;;;;;;23.45;12.00;;;-6.90;73.30;;;;;;5052449;28;20021;-81
2020/12/11 03:24:48;;;;;;;20.48;11.13;;;-6.90;73.50;;;;;;5054320;28;20403;-80
2020/12/11 03:27:14;;;;;;;27.27;10.07;;;-7.00;73.30;;;;;;5056956;28;20025;-80
2020/12/11 03:29:39;;;;;;;17.33;10.43;;;-7.00;73.40;;;;;;5056091;28;20059;-80
2020/12/11 03:32:05;;;;;;;16.10;10.30;;;-7.00;73.50;;;;;;5056448;28;20036;-80
2020/12/11 03:34:31;;;;;;;17.80;10.60;;;-7.00;73.60;;;;;;5057325;28;20032;-81
2020/12/11 03:36:57;;;;;;;20.35;11.35;;;-7.00;73.70;;;;;;5056528;28;20094;-82
2020/12/11 03:39:23;;;;;;;18.20;10.30;;;-7.00;73.70;;;;;;5056472;28;20017;-82
2020/12/11 03:41:53;;;;;;;18.45;11.95;;;-7.00;73.80;;;;;;5054971;28;20503;-81
2020/12/11 03:44:20;;;;;;;18.05;9.77;;;-7.00;73.80;;;;;;5060703;28;20056;-82
2020/12/11 03:46:46;;;;;;;18.60;9.93;;;-7.00;73.80;;;;;;5060731;28;20052;-83
2020/12/11 03:49:12;;;;;;;17.10;10.70;;;-7.10;73.70;;;;;;5060427;28;20361;-82
2020/12/11 03:51:38;;;;;;;24.40;11.45;;;-7.10;73.90;;;;;;5057680;28;20055;-82
2020/12/11 03:54:04;;;;;;;20.48;10.60;;;-7.10;74.00;;;;;;5057464;28;20017;-82
2020/12/11 03:56:30;;;;;;;14.80;9.80;;;-7.10;74.10;;;;;;5056609;28;20047;-85
2020/12/11 03:58:56;;;;;;;19.95;10.68;;;-7.10;74.00;;;;;;5057449;28;20393;-82
2020/12/11 04:01:22;;;;;;;19.05;9.35;;;-7.00;74.10;;;;;;5069915;28;20025;-80
2020/12/11 04:03:49;;;;;;;22.48;11.23;;;-7.10;74.00;;;;;;5068698;28;20023;-84
2020/12/11 04:06:16;;;;;;;24.95;12.73;;;-7.10;74.10;;;;;;5057160;28;20025;-83
2020/12/11 04:08:42;;;;;;;;;;;-7.00;74.20;;;;;;5057178;28;20021;-84
2020/12/11 04:11:10;;;;;;;17.57;10.30;;;-7.00;74.10;;;;;;5057258;28;20040;-82
2020/12/11 04:13:36;;;;;;;21.17;9.63;;;-7.00;73.90;;;;;;5057020;28;20254;-83
2020/12/11 04:16:03;;;;;;;24.38;11.20;;;-7.10;73.90;;;;;;5055523;28;20048;-83
2020/12/11 04:18:29;;;;;;;16.17;9.90;;;-7.10;74.10;;;;;;5055888;28;20459;-84
2020/12/11 04:20:56;;;;;;;16.63;10.02;;;-7.10;74.10;;;;;;5055700;28;20063;-82
2020/12/11 04:23:26;;;;;;;21.52;10.68;;;-7.10;74.20;;;;;;5055510;28;20025;-82
2020/12/11 04:25:53;;;;;;;18.80;10.25;;;-7.10;74.20;;;;;;5055440;28;20432;-82
2020/12/11 04:28:19;;;;;;;16.17;11.40;;;-7.10;74.20;;;;;;5054747;28;20178;-82
2020/12/11 04:30:45;;;;;;;14.13;9.13;;;-7.10;74.20;;;;;;5055589;28;20025;-83
2020/12/11 04:33:11;;;;;;;19.20;11.40;;;-7.10;74.10;;;;;;5055361;28;20366;-82
2020/12/11 04:35:37;;;;;;;22.15;11.23;;;-7.10;74.10;;;;;;5055454;28;20096;-82
2020/12/11 04:38:03;;;;;;;17.85;9.95;;;-7.10;74.10;;;;;;5056842;28;20021;-81
2020/12/11 04:40:30;;;;;;;19.35;10.65;;;-7.10;74.10;;;;;;5055571;28;20016;-82
2020/12/11 04:42:56;;;;;;;19.58;11.68;;;-7.00;74.10;;;;;;5058775;28;20025;-81
2020/12/11 04:45:23;;;;;;;16.10;9.82;;;-7.00;74.10;;;;;;5059264;28;20457;-83
2020/12/11 04:47:50;;;;;;;19.15;10.68;;;-7.00;74.00;;;;;;5055938;28;20033;-83
2020/12/11 04:50:17;;;;;;;25.05;11.32;;;-7.00;74.00;;;;;;5054749;28;20041;-81
2020/12/11 04:52:44;;;;;;;;;;;-7.00;73.90;;;;;;5055208;28;20108;-81
2020/12/11 04:55:14;;;;;;;17.52;11.30;;;-7.00;73.90;;;;;;5055001;28;19992;-81
2020/12/11 04:57:45;;;;;;;22.58;11.95;;;-7.00;73.70;;;;;;5055775;28;20075;-81
2020/12/11 05:00:12;;;;;;;14.35;9.00;;;-7.00;73.90;;;;;;5042050;28;20029;-82
2020/12/11 05:02:44;;;;;;;21.42;9.45;;;-7.00;73.90;;;;;;5056181;28;20536;-81
2020/12/11 05:05:11;;;;;;;20.20;11.05;;;-7.00;73.90;;;;;;5054360;28;20021;-82
2020/12/11 05:07:38;;;;;;;22.33;11.65;;;-7.10;74.00;;;;;;5054549;28;20078;-84
2020/12/11 05:10:08;;;;;;;18.58;12.85;;;-7.00;74.20;;;;;;5054385;28;20075;-83
2020/12/11 05:12:34;;;;;;;19.95;11.32;;;-7.00;74.20;;;;;;5054644;28;20550;-82
2020/12/11 05:15:03;;;;;;;18.17;8.77;;;-7.00;74.10;;;;;;5052700;28;20478;-83
2020/12/11 05:17:32;;;;;;;16.80;9.60;;;-6.90;74.10;;;;;;5055012;28;20029;-84
2020/12/11 05:20:00;;;;;;;22.08;11.65;;;-6.90;74.10;;;;;;5054339;28;20043;-83
2020/12/11 05:22:31;;;;;;;18.27;9.90;;;-6.90;74.10;;;;;;5054927;28;20064;-83
2020/12/11 05:24:57;;;;;;;20.92;12.50;;;-6.90;74.20;;;;;;5054634;28;20108;-84
2020/12/11 05:27:44;;;;;;;27.67;12.83;;;-6.80;74.20;;;;;;5053202;28;20032;-84
2020/12/11 05:30:10;;;;;;;21.67;11.25;;;-6.80;74.20;;;;;;5053250;28;20281;-83
2020/12/11 05:32:45;;;;;;;22.45;10.38;;;-6.80;74.10;;;;;;5053857;28;20489;-83
2020/12/11 05:35:20;;;;;;;16.73;11.63;;;-6.80;74.10;;;;;;5054250;28;20028;-83
2020/12/11 05:37:49;;;;;;;27.58;11.65;;;-6.70;74.10;;;;;;5055064;28;20027;-82
2020/12/11 05:40:19;;;;;;;26.13;14.88;;;-6.70;74.00;;;;;;5055258;28;20017;-83
2020/12/11 05:43:06;;;;;;;18.65;11.45;;;-6.70;74.00;;;;;;5042785;28;20021;-85
2020/12/11 05:45:36;;;;;;;29.45;12.73;;;-6.70;73.90;;;;;;5053902;28;20053;-83
2020/12/11 05:48:06;;;;;;;22.52;11.73;;;-6.70;73.80;;;;;;5051448;28;20029;-82
2020/12/11 05:50:32;;;;;;;22.40;11.73;;;-6.70;73.80;;;;;;5053892;28;20048;-82
2020/12/11 05:52:58;;;;;;;18.40;12.15;;;-6.60;73.90;;;;;;5052467;28;20063;-82
2020/12/11 05:55:24;;;;;;;25.25;14.90;;;-6.70;73.70;;;;;;5053947;28;20466;-82
2020/12/11 05:57:54;;;;;;;20.73;11.75;;;-6.60;74.50;;;;;;5058276;28;20028;-81
2020/12/11 06:00:20;;;;;;;21.98;12.15;;;-6.60;73.90;;;;;;5063504;28;20032;-82
2020/12/11 06:02:50;;;;;;;23.83;12.43;;;-6.60;73.90;;;;;;5055064;28;20490;-86
2020/12/11 06:05:18;;;;;;;19.35;12.05;;;-6.60;73.90;;;;;;5061291;28;20020;-85
2020/12/11 06:07:46;;;;;;;27.75;11.73;;;-6.60;73.90;;;;;;5064717;28;20059;-83
2020/12/11 06:10:21;;;;;;;20.30;12.05;;;-6.60;73.90;;;;;;5053157;28;20037;-80
2020/12/11 06:12:47;;;;;;;20.38;12.57;;;-6.60;73.70;;;;;;5052059;28;20059;-81
2020/12/11 06:15:29;;;;;;;22.38;10.77;;;-6.60;73.60;;;;;;5053293;28;20055;-83
2020/12/11 06:18:08;;;;;;;26.45;12.27;;;-6.60;73.50;;;;;;5054738;28;20095;-82
2020/12/11 06:20:35;;;;;;;22.25;12.25;;;-6.50;73.60;;;;;;5048379;28;20088;-83
2020/12/11 06:23:24;;;;;;;18.77;10.30;;;-6.50;73.40;;;;;;5056143;28;20093;-83
2020/12/11 06:26:00;;;;;;;25.33;12.48;;;-6.40;73.30;;;;;;5042427;28;20079;-83
2020/12/11 06:28:51;;;;;;;25.70;12.25;;;-6.40;73.00;;;;;;5053353;28;20095;-83
2020/12/11 06:31:19;;;;;;;25.45;12.77;;;-6.40;73.00;;;;;;5053605;28;20433;-83
2020/12/11 06:33:53;;;;;;;24.13;12.13;;;-6.30;72.90;;;;;;5053695;28;20017;-84
2020/12/11 06:36:20;;;;;;;30.73;10.35;;;-6.30;72.70;;;;;;5051871;28;20032;-82
2020/12/11 06:38:53;;;;;;;24.53;11.90;;;-6.30;72.60;;;;;;5053151;28;20017;-82
2020/12/11 06:41:28;;;;;;;23.67;12.25;;;-6.30;72.70;;;;;;5053411;28;20029;-85
2020/12/11 06:44:13;;;;;;;22.33;12.05;;;-6.20;72.90;;;;;;5053080;28;20025;-83
2020/12/11 06:46:39;;;;;;;27.35;11.07;;;-6.20;72.70;;;;;;5051545;28;20549;-83
2020/12/11 06:49:10;;;;;;;25.35;13.55;;;-6.10;72.60;;;;;;5051695;28;20121;-84
2020/12/11 06:51:45;;;;;;;24.23;15.23;;;-6.10;72.60;;;;;;5054948;28;20478;-84
2020/12/11 06:54:20;;;;;;;28.40;13.43;;;-6.10;72.50;;;;;;5053729;28;20029;-82
2020/12/11 06:56:47;;;;;;;24.13;13.57;;;-6.00;72.40;;;;;;5052963;28;20104;-83
2020/12/11 06:59:19;;;;;;;13.13;9.07;;;-6.00;72.20;;;;;;5052348;28;20041;-83
2020/12/11 07:01:46;;;;;;;22.25;13.90;;;-6.00;72.20;;;;;;5039157;28;20025;-82
2020/12/11 07:04:11;;;;;;;23.98;13.05;;;-5.90;72.30;;;;;;5052575;28;20435;-85
2020/12/11 07:06:37;;;;;;;29.55;15.80;;;-5.90;72.20;;;;;;5052456;28;20017;-82
2020/12/11 07:09:04;;;;;;;27.77;14.68;;;-5.90;72.30;;;;;;5053283;28;20029;-80
2020/12/11 07:11:30;;;;;;;23.00;13.65;;;-5.90;72.30;;;;;;5042965;28;20383;-79
2020/12/11 07:13:56;;;;;;;28.73;14.55;;;-5.90;72.90;;;;;;5041975;28;20033;-80
2020/12/11 07:16:22;;;;;;;22.63;12.13;;;-5.90;72.50;;;;;;5052259;28;20018;-80
2020/12/11 07:18:48;;;;;;;24.70;15.55;;;-5.80;72.50;;;;;;5052520;28;20021;-82
2020/12/11 07:21:14;;;;;;;22.60;13.50;;;-5.80;72.30;;;;;;5052267;28;20017;-80
2020/12/11 07:23:41;;;;;;;24.45;13.00;;;-5.70;72.30;;;;;;5051940;28;20588;-84
2020/12/11 07:26:07;;;;;;;26.05;12.95;;;-5.70;72.10;;;;;;5041824;28;20028;-83
2020/12/11 07:28:33;;;;;;;25.55;13.48;;;-5.60;72.10;;;;;;5052832;28;20029;-83
2020/12/11 07:31:00;;;;;;;24.13;14.93;;;-5.70;72.00;;;;;;5048831;28;20087;-82
2020/12/11 07:33:33;;;;;;;19.38;14.35;;;-5.60;72.10;;;;;;5048692;28;20045;-82
2020/12/11 07:36:01;;;;;;;27.98;13.45;;;-5.60;72.00;;;;;;5050466;28;20029;-82
2020/12/11 07:38:27;;;;;;;26.77;13.30;;;-5.60;71.80;;;;;;5050181;28;20040;-80
2020/12/11 07:40:57;;;;;;;23.55;13.13;;;-5.60;71.80;;;;;;5051799;28;20094;-81
2020/12/11 07:43:24;;;;;;;26.35;13.95;;;-5.70;71.90;;;;;;5051809;28;20017;-81
2020/12/11 07:45:50;;;;;;;26.30;14.20;;;-5.70;72.10;;;;;;5051543;28;20114;-81
2020/12/11 07:48:16;;;;;;;23.77;12.85;;;-5.60;72.30;;;;;;5050199;28;20059;-83
2020/12/11 07:50:43;;;;;;;27.40;14.18;;;-5.50;72.30;;;;;;5051671;28;20471;-80
2020/12/11 07:53:10;;;;;;;28.17;12.20;;;-5.40;72.20;;;;;;5049606;28;20453;-79
2020/12/11 07:55:36;;;;;;;32.13;13.32;;;-5.30;72.10;;;;;;5052964;28;20017;-80
2020/12/11 07:58:03;;;;;;;22.38;14.70;;;-5.20;72.00;;;;;;5060768;28;20021;-81
2020/12/11 08:00:34;;;;;;;24.25;14.25;;;-4.90;72.00;;;;;;5053592;28;20474;-81
2020/12/11 08:03:05;;;;;;;26.38;16.25;;;-4.60;71.50;;;;;;5050846;28;20088;-84
2020/12/11 08:05:33;;;;;;;25.33;13.68;;;-4.40;71.00;;;;;;5052743;28;20021;-83
2020/12/11 08:07:59;;;;;;;;;;;-4.00;70.50;;;;;;5051963;28;20040;-82
2020/12/11 08:10:40;;;;;;;30.13;13.55;;;-3.80;70.10;;;;;;5051733;28;19917;-84
2020/12/11 08:13:17;;;;;;;27.83;15.57;;;-3.50;68.90;;;;;;5054851;28;20017;-81
2020/12/11 08:15:44;;;;;;;29.00;14.68;;;-3.20;68.40;;;;;;5054418;28;20017;-82
2020/12/11 08:18:27;;;;;;;;;;;-2.80;68.20;;;;;;5055572;28;20029;-82
2020/12/11 08:20:56;;;;;;;23.98;14.02;;;-2.40;68.20;;;;;;5055278;28;19954;-81
2020/12/11 08:23:38;;;;;;;24.27;14.85;;;-2.00;66.00;;;;;;5054862;28;20048;-81
2020/12/11 08:26:10;;;;;;;24.02;14.82;;;-1.90;64.90;;;;;;5055108;28;20493;-79
2020/12/11 08:28:37;;;;;;;27.40;15.25;;;-1.70;64.20;;;;;;5053183;28;20033;-82
2020/12/11 08:31:17;;;;;;;19.08;13.38;;;-1.40;63.70;;;;;;5055136;28;20024;-80
2020/12/11 08:33:43;;;;;;;25.98;16.83;;;-1.30;62.10;;;;;;5055131;28;20399;-82
2020/12/11 08:36:27;;;;;;;26.42;15.07;;;-1.20;62.10;;;;;;5054573;28;20057;-81
2020/12/11 08:39:05;;;;;;;27.40;15.85;;;-1.30;61.00;;;;;;5055375;28;20033;-81
2020/12/11 08:41:32;;;;;;;25.45;14.13;;;-1.30;60.90;;;;;;5055599;28;20025;-81
2020/12/11 08:43:59;;;;;;;30.88;18.17;;;-1.50;61.00;;;;;;5053017;28;20029;-84
2020/12/11 08:49:29;;;;;;;24.50;14.98;;;-1.70;61.30;;;;;;5025739;28;20048;-82
2020/12/11 08:51:55;;;;;;;27.27;15.10;;;-1.70;61.60;;;;;;5053930;28;20021;-81
2020/12/11 08:54:27;;;;;;;23.52;15.55;;;-1.60;61.60;;;;;;5054407;28;20087;-83
2020/12/11 08:56:53;;;;;;;29.33;15.40;;;-1.80;60.90;;;;;;5055534;28;20099;-85
2020/12/11 08:59:19;;;;;;;28.08;15.75;;;-1.80;61.70;;;;;;5055642;28;20048;-82
2020/12/11 09:01:45;;;;;;;30.45;16.50;;;-1.60;61.90;;;;;;5053177;28;20032;-82
2020/12/11 09:04:22;;;;;;;26.70;15.70;;;-1.30;61.50;;;;;;5053762;28;20484;-82
2020/12/11 09:06:48;;;;;;;29.98;16.58;;;-1.10;60.50;;;;;;5053929;28;20386;-82
2020/12/11 09:09:14;;;;;;;29.42;16.77;;;-0.90;60.60;;;;;;5053910;28;20075;-81
2020/12/11 09:11:39;;;;;;;32.72;16.85;;;-0.80;60.00;;;;;;5053960;28;20028;-81
2020/12/11 09:14:05;;;;;;;31.42;16.27;;;-0.70;59.80;;;;;;5052905;28;20032;-82
2020/12/11 09:16:31;;;;;;;20.77;14.77;;;-0.70;59.30;;;;;;5054582;28;20036;-82
2020/12/11 09:18:57;;;;;;;25.23;15.73;;;-0.90;59.10;;;;;;5054431;28;20013;-81
2020/12/11 09:21:23;;;;;;;26.63;15.07;;;-0.90;59.70;;;;;;5055343;28;20056;-84
2020/12/11 09:23:49;;;;;;;31.38;16.50;;;-0.90;59.70;;;;;;5054182;28;20024;-82
2020/12/11 09:26:14;;;;;;;40.95;16.55;;;-0.90;59.80;;;;;;5053553;28;20420;-80
2020/12/11 09:28:44;;;;;;;30.92;16.70;;;-1.00;59.80;;;;;;5051557;28;20029;-84
2020/12/11 09:31:10;;;;;;;25.70;16.10;;;-1.40;60.10;;;;;;5050033;28;21381;-81
2020/12/11 09:33:39;;;;;;;34.80;17.20;;;-1.60;61.00;;;;;;5054374;28;20029;-83
2020/12/11 09:36:04;;;;;;;30.58;15.98;;;-1.80;61.50;;;;;;5055209;28;20013;-83
2020/12/11 09:38:30;;;;;;;25.77;17.10;;;-1.90;62.00;;;;;;5052251;28;20028;-87
2020/12/11 09:41:03;;;;;;;28.20;15.95;;;-2.10;62.40;;;;;;5054653;28;20017;-83
2020/12/11 09:49:07;;;;;;;25.58;14.55;;;-2.50;63.70;;;;;;5053703;28;19916;-82
2020/12/11 09:51:54;;;;;;;27.10;15.45;;;-2.60;64.30;;;;;;5054391;28;20017;-83
2020/12/11 09:54:25;;;;;;;26.13;16.27;;;-2.60;65.00;;;;;;5055064;28;20100;-82
2020/12/11 09:56:51;;;;;;;29.17;17.05;;;-2.60;65.30;;;;;;5050842;28;20111;-82
2020/12/11 09:59:28;;;;;;;32.75;19.23;;;-2.50;65.60;;;;;;5040982;28;20056;-81
2020/12/11 10:04:34;;;;;;;30.77;16.90;;;-1.70;65.90;;;;;;5054438;28;20041;-80
2020/12/11 10:06:59;;;;;;;26.20;16.63;;;-1.10;65.10;;;;;;5053735;28;20032;-82
2020/12/11 10:09:25;;;;;;;28.60;17.10;;;-0.70;63.50;;;;;;5053422;28;20029;-84
2020/12/11 10:11:52;;;;;;;27.02;18.15;;;-0.30;62.90;;;;;;5053589;28;20013;-84
2020/12/11 10:14:26;;;;;;;26.63;17.95;;;0.20;62.20;;;;;;5053697;28;20029;-83
2020/12/11 10:16:55;;;;;;;29.27;16.15;;;0.90;61.40;;;;;;5053530;28;20478;-81
2020/12/11 10:19:22;;;;;;;31.42;17.38;;;1.80;59.70;;;;;;5055029;28;20112;-83
2020/12/11 10:21:49;;;;;;;26.77;16.77;;;2.60;57.90;;;;;;5052094;28;20021;-84
2020/12/11 10:24:16;;;;;;;26.42;16.60;;;2.70;55.80;;;;;;5054429;28;20029;-82
2020/12/11 10:26:42;;;;;;;32.00;17.67;;;2.40;55.00;;;;;;5053885;28;20478;-84
2020/12/11 10:29:09;;;;;;;26.63;16.70;;;1.60;55.60;;;;;;5053733;28;20454;-83
2020/12/11 10:31:35;;;;;;;28.27;19.07;;;1.00;56.50;;;;;;5053137;28;20051;-84
2020/12/11 10:34:01;;;;;;;27.88;16.75;;;0.50;57.50;;;;;;5051057;28;20288;-84
2020/12/11 10:36:31;;;;;;;32.58;17.27;;;0.10;58.30;;;;;;5054632;28;20028;-84
2020/12/11 10:38:58;;;;;;;30.88;15.77;;;-0.40;59.50;;;;;;5054094;28;20017;-82
2020/12/11 10:41:26;;;;;;;28.63;17.70;;;-0.70;60.40;;;;;;5052342;28;20066;-84
2020/12/11 10:43:52;;;;;;;31.08;20.25;;;-1.00;61.30;;;;;;5053286;28;20013;-84
2020/12/11 10:46:19;;;;;;;28.30;18.25;;;-1.20;62.00;;;;;;5052981;28;20051;-84
2020/12/11 10:48:47;;;;;;;26.20;16.30;;;-1.40;62.60;;;;;;5053288;28;20029;-84
2020/12/11 10:51:15;;;;;;;31.85;17.17;;;-1.40;63.30;;;;;;5056173;28;20025;-83
2020/12/11 10:53:42;;;;;;;35.33;17.73;;;-1.60;63.60;;;;;;5061456;28;20540;-83
2020/12/11 10:56:10;;;;;;;30.10;18.58;;;-1.70;64.10;;;;;;5051581;28;20115;-88
2020/12/11 10:58:38;;;;;;;29.88;16.90;;;-1.80;64.40;;;;;;5055196;28;20025;-89
2020/12/11 11:01:09;;;;;;;30.42;18.60;;;-1.90;64.80;;;;;;5054873;28;20021;-89
2020/12/11 11:03:36;;;;;;;28.65;16.75;;;-2.00;65.30;;;;;;5050722;28;20043;-83
2020/12/11 11:06:08;;;;;;;35.55;16.77;;;-2.20;65.60;;;;;;5050079;28;20458;-89
2020/12/11 11:09:05;;;;;;;37.38;20.05;;;-2.30;66.30;;;;;;5053504;28;20067;-87
2020/12/11 11:11:26;;;;;;;33.70;20.70;;;-2.40;66.70;;;;;;5062338;28;20044;-87
2020/12/11 11:16:29;;;;;;;35.15;17.48;;;-2.40;67.20;;;;;;5053648;28;20076;-87
2020/12/11 11:19:01;;;;;;;41.88;19.17;;;-2.50;67.50;;;;;;5053405;28;20466;-84
2020/12/11 11:21:53;;;;;;;35.28;19.13;;;-2.50;67.70;;;;;;5048042;28;20024;-86
2020/12/11 11:24:40;;;;;;;32.40;16.70;;;-2.50;67.80;;;;;;5052410;28;20086;-85
2020/12/11 11:27:16;;;;;;;25.15;15.30;;;-2.40;67.80;;;;;;5052281;28;20024;-85
2020/12/11 11:29:42;;;;;;;33.33;17.55;;;-2.50;67.90;;;;;;5053113;28;20433;-84
2020/12/11 11:32:08;;;;;;;27.45;17.20;;;-2.60;68.10;;;;;;5051306;28;20025;-85
2020/12/11 11:34:33;;;;;;;31.98;17.95;;;-2.60;68.40;;;;;;5052873;28;20025;-85
2020/12/11 11:36:59;;;;;;;25.40;14.25;;;-2.60;68.40;;;;;;5052206;28;20474;-84
2020/12/11 11:39:25;;;;;;;30.00;16.77;;;-2.60;68.40;;;;;;5052856;28;20368;-84
2020/12/11 11:41:55;;;;;;;28.55;16.92;;;-2.70;68.50;;;;;;5052595;28;20028;-84
2020/12/11 11:46:56;;;;;;;31.05;17.17;;;-2.70;68.40;;;;;;5054439;28;20095;-82
2020/12/11 11:54:20;;;;;;;25.65;16.67;;;-2.70;68.30;;;;;;5055949;28;20033;-83
2020/12/11 11:56:46;;;;;;;34.42;16.90;;;-2.70;68.40;;;;;;5056824;28;20454;-83
2020/12/11 11:59:11;;;;;;;27.38;16.13;;;-2.80;68.40;;;;;;5042266;28;20056;-85
2020/12/11 12:01:37;;;;;;;38.53;16.85;;;-2.80;68.40;;;;;;5055047;28;20497;-85
2020/12/11 12:04:03;;;;;;;28.15;15.80;;;-2.80;68.40;;;;;;5054906;28;20029;-83
2020/12/11 12:06:29;;;;;;;26.25;15.13;;;-2.80;68.50;;;;;;5055745;28;20107;-82
2020/12/11 12:08:55;;;;;;;27.27;15.77;;;-2.90;68.40;;;;;;5058736;28;20056;-84
2020/12/11 12:11:20;;;;;;;25.40;14.95;;;-2.90;68.30;;;;;;5057199;28;20048;-85
2020/12/11 12:13:49;;;;;;;30.13;16.88;;;-2.90;68.30;;;;;;5055487;28;20052;-85
2020/12/11 12:16:17;;;;;;;26.98;15.20;;;-2.90;68.30;;;;;;5052788;28;20367;-83
2020/12/11 12:18:44;;;;;;;28.10;13.02;;;-2.90;68.20;;;;;;5054666;28;20029;-83
2020/12/11 12:29:31;;;;;;;24.45;14.35;;;-3.00;67.30;;;;;;5055077;28;20052;-86
2020/12/11 12:32:15;;;;;;;33.83;16.77;;;-3.00;67.00;;;;;;5055715;28;20062;-85
2020/12/11 12:34:49;;;;;;;37.92;18.02;;;-3.10;66.70;;;;;;5058661;28;20119;-84
2020/12/11 12:44:58;;;;;;;32.35;19.25;;;-3.20;66.90;;;;;;5047100;28;20028;-82
2020/12/11 12:47:24;;;;;;;41.85;19.73;;;-3.30;66.90;;;;;;5056794;28;20482;-82
2020/12/11 12:49:50;;;;;;;40.83;21.67;;;-3.30;67.00;;;;;;5059682;28;20036;-86
2020/12/11 12:52:17;;;;;;;41.00;21.05;;;-3.40;67.10;;;;;;5054490;28;20075;-84
2020/12/11 12:54:43;;;;;;;41.38;20.58;;;-3.40;67.10;;;;;;5054835;28;20028;-82
2020/12/11 12:57:14;;;;;;;42.83;20.83;;;-3.50;67.10;;;;;;5054265;28;20101;-84
2020/12/11 13:00:18;;;;;;;41.50;22.77;;;-3.50;67.30;;;;;;5042153;28;20416;-80
2020/12/11 13:06:02;;;;;;;44.83;22.95;;;-3.70;67.40;;;;;;5056333;28;20086;-82
2020/12/11 13:08:27;;;;;;;48.63;20.35;;;-3.80;67.50;;;;;;5054399;28;20040;-83
2020/12/11 13:10:53;;;;;;;39.33;17.95;;;-3.80;67.70;;;;;;5054710;28;20597;-83
2020/12/11 13:13:19;;;;;;;30.23;18.27;;;-3.80;67.70;;;;;;5054867;28;20021;-82
2020/12/11 13:15:45;;;;;;;35.63;20.52;;;-3.90;67.60;;;;;;5056149;28;20502;-82
2020/12/11 13:18:11;;;;;;;34.45;20.13;;;-3.90;67.50;;;;;;5055499;28;20032;-82